createdAt,value
2019-05-01T00:01:32.030Z,32.42
2019-05-01T00:03:58.480Z,32.39
2019-05-01T00:06:24.835Z,32.48
2019-05-01T00:08:51.210Z,32.52
2019-05-01T00:11:17.574Z,32.57
2019-05-01T00:13:43.931Z,32.35
2019-05-01T00:16:10.220Z,32.55
2019-05-01T00:18:36.543Z,32.50
2019-05-01T00:21:02.895Z,32.62
2019-05-01T00:23:29.273Z,32.54
2019-05-01T00:25:55.650Z,32.46
2019-05-01T00:28:21.960Z,32.52
2019-05-01T00:30:48.297Z,32.62
2019-05-01T00:33:14.634Z,32.48
2019-05-01T00:35:40.973Z,32.38
2019-05-01T00:38:07.384Z,32.41
2019-05-01T00:40:33.674Z,32.45
2019-05-01T00:43:00.025Z,32.39
2019-05-01T00:45:26.384Z,32.39
2019-05-01T00:47:52.729Z,32.45
2019-05-01T00:50:19.186Z,32.36
2019-05-01T00:52:45.514Z,32.35
2019-05-01T00:55:11.851Z,32.20
2019-05-01T00:57:38.244Z,32.33
2019-05-01T01:00:04.624Z,32.34
2019-05-01T01:02:31.043Z,32.34
2019-05-01T01:04:57.339Z,32.24
2019-05-01T01:07:23.686Z,32.44
2019-05-01T01:09:50.100Z,32.28
2019-05-01T01:12:16.436Z,32.32
2019-05-01T01:14:42.768Z,32.32
2019-05-01T01:17:09.100Z,32.42
2019-05-01T01:19:35.473Z,32.37
2019-05-01T01:22:01.771Z,32.24
2019-05-01T01:24:28.118Z,32.38
2019-05-01T01:26:54.452Z,32.40
2019-05-01T01:29:20.778Z,32.46
2019-05-01T01:31:47.115Z,32.36
2019-05-01T01:34:13.491Z,32.35
2019-05-01T01:36:39.896Z,32.22
2019-05-01T01:39:06.239Z,32.39
2019-05-01T01:41:32.615Z,32.47
2019-05-01T01:43:58.996Z,32.44
2019-05-01T01:46:25.393Z,32.41
2019-05-01T01:48:51.726Z,32.37
2019-05-01T01:51:18.099Z,32.22
2019-05-01T01:53:44.522Z,32.51
2019-05-01T01:56:10.861Z,32.48
2019-05-01T01:58:37.191Z,32.52
2019-05-01T02:01:09.726Z,32.51
2019-05-01T02:03:29.916Z,32.45
2019-05-01T02:05:56.308Z,32.46
2019-05-01T02:08:22.701Z,32.39
2019-05-01T02:10:48.996Z,32.47
2019-05-01T02:13:15.337Z,32.54
2019-05-01T02:15:41.768Z,32.39
2019-05-01T02:18:08.122Z,32.51
2019-05-01T02:20:34.514Z,32.59
2019-05-01T02:23:00.835Z,32.53
2019-05-01T02:25:27.204Z,32.57
2019-05-01T02:27:53.557Z,32.60
2019-05-01T02:30:19.968Z,32.46
2019-05-01T02:32:46.357Z,32.62
2019-05-01T02:35:12.627Z,32.53
2019-05-01T02:37:38.959Z,32.56
2019-05-01T02:40:05.407Z,32.54
2019-05-01T02:42:31.745Z,32.57
2019-05-01T02:44:58.068Z,32.54
2019-05-01T02:47:24.469Z,32.56
2019-05-01T02:49:50.796Z,32.62
2019-05-01T02:52:17.173Z,32.62
2019-05-01T02:54:43.489Z,32.64
2019-05-01T02:57:09.896Z,32.63
2019-05-01T02:59:36.361Z,32.47
2019-05-01T03:02:02.770Z,32.60
2019-05-01T03:04:29.104Z,32.33
2019-05-01T03:06:55.465Z,32.63
2019-05-01T03:09:21.859Z,32.60
2019-05-01T03:11:48.218Z,32.62
2019-05-01T03:14:14.569Z,32.56
2019-05-01T03:16:40.910Z,32.55
2019-05-01T03:19:07.243Z,32.50
2019-05-01T03:21:33.595Z,32.59
2019-05-01T03:23:59.948Z,32.58
2019-05-01T03:26:26.308Z,32.52
2019-05-01T03:28:52.659Z,32.56
2019-05-01T03:31:19.018Z,32.59
2019-05-01T03:33:45.409Z,32.57
2019-05-01T03:36:11.760Z,32.58
2019-05-01T03:38:38.083Z,32.63
2019-05-01T03:41:04.417Z,32.56
2019-05-01T03:43:30.747Z,32.53
2019-05-01T03:45:57.125Z,32.53
2019-05-01T03:48:23.458Z,32.47
2019-05-01T03:50:49.812Z,32.48
2019-05-01T03:53:16.244Z,32.52
2019-05-01T03:55:42.594Z,32.55
2019-05-01T03:58:08.942Z,32.55
2019-05-01T04:00:35.368Z,32.53
2019-05-01T04:03:01.753Z,32.37
2019-05-01T04:05:28.194Z,32.30
2019-05-01T04:10:20.875Z,32.34
2019-05-01T04:12:47.179Z,32.42
2019-05-01T04:15:13.510Z,32.37
2019-05-01T04:17:39.883Z,32.10
2019-05-01T04:20:06.218Z,31.89
2019-05-01T04:22:32.556Z,31.61
2019-05-01T04:24:58.894Z,31.42
2019-05-01T04:27:25.239Z,31.50
2019-05-01T04:29:51.632Z,31.29
2019-05-01T04:32:17.951Z,31.28
2019-05-01T04:34:44.295Z,31.30
2019-05-01T04:37:10.625Z,31.03
2019-05-01T04:39:37.017Z,31.04
2019-05-01T04:42:04.540Z,30.88
2019-05-01T04:44:29.679Z,30.92
2019-05-01T04:46:56.015Z,30.74
2019-05-01T04:49:22.361Z,30.88
2019-05-01T04:51:48.701Z,31.14
2019-05-01T04:54:15.038Z,31.18
2019-05-01T04:56:41.357Z,31.10
2019-05-01T04:59:07.705Z,31.48
2019-05-01T05:01:34.093Z,31.55
2019-05-01T05:06:26.753Z,31.45
2019-05-01T05:08:53.085Z,31.39
2019-05-01T05:11:19.448Z,31.14
2019-05-01T05:13:47.065Z,31.13
2019-05-01T05:16:12.165Z,31.08
2019-05-01T05:18:38.496Z,31.31
2019-05-01T05:21:04.830Z,31.40
2019-05-01T05:23:31.164Z,31.34
2019-05-01T05:25:57.501Z,31.38
2019-05-01T05:28:23.832Z,31.21
2019-05-01T05:30:50.163Z,31.35
2019-05-01T05:33:18.682Z,31.41
2019-05-01T05:35:43.495Z,31.38
2019-05-01T05:40:36.185Z,31.35
2019-05-01T05:43:02.593Z,31.42
2019-05-01T05:45:28.931Z,31.50
2019-05-01T09:49:01.204Z,31.15
2019-05-01T09:51:27.684Z,31.11
2019-05-01T09:53:54.018Z,31.17
2019-05-01T09:58:46.750Z,30.66
2019-05-01T10:01:13.091Z,30.50
2019-05-01T10:03:39.417Z,30.36
2019-05-01T10:06:05.764Z,30.47
2019-05-01T10:08:34.723Z,30.27
2019-05-01T10:11:00.019Z,30.21
2019-05-01T10:13:24.959Z,30.21
2019-05-01T10:15:51.345Z,30.17
2019-05-01T10:18:17.671Z,30.26
2019-05-01T10:20:44.233Z,30.18
2019-05-01T10:23:13.085Z,30.10
2019-05-01T10:25:36.937Z,30.09
2019-05-01T10:28:07.312Z,30.17
2019-05-01T10:30:31.743Z,30.12
2019-05-01T10:32:57.741Z,30.20
2019-05-01T10:35:22.326Z,30.03
2019-05-01T10:37:48.676Z,30.07
2019-05-01T10:40:15.108Z,29.90
2019-05-01T10:42:41.528Z,30.03
2019-05-01T10:45:07.860Z,29.89
2019-05-01T10:47:34.222Z,29.75
2019-05-01T10:50:00.549Z,29.72
2019-05-01T10:52:26.933Z,29.75
2019-05-01T10:54:53.234Z,29.65
2019-05-01T10:57:19.605Z,29.63
2019-05-01T10:59:45.932Z,29.46
2019-05-01T11:02:12.416Z,29.48
2019-05-01T11:04:38.759Z,29.41
2019-05-01T11:07:05.062Z,29.39
2019-05-01T11:09:31.437Z,29.27
2019-05-01T11:11:57.768Z,29.29
2019-05-01T11:16:50.506Z,29.20
2019-05-01T11:19:16.783Z,29.11
2019-05-01T11:21:43.243Z,29.12
2019-05-01T11:24:09.560Z,29.09
2019-05-01T11:26:35.874Z,29.03
2019-05-01T11:29:02.205Z,29.01
2019-05-01T11:31:28.561Z,28.82
2019-05-01T11:33:54.913Z,28.90
2019-05-01T11:36:21.268Z,28.86
2019-05-01T11:38:47.620Z,28.79
2019-05-01T11:41:13.997Z,28.85
2019-05-01T11:43:40.677Z,28.88
2019-05-01T11:46:07.066Z,28.96
2019-05-01T11:48:33.359Z,28.94
2019-05-01T11:50:59.699Z,29.00
2019-05-01T11:53:26.103Z,29.02
2019-05-01T11:55:52.452Z,28.92
2019-05-01T11:58:18.786Z,29.08
2019-05-01T12:00:45.116Z,29.25
2019-05-01T12:03:11.510Z,29.39
2019-05-01T12:05:37.902Z,29.66
2019-05-01T12:08:04.234Z,29.73
2019-05-01T12:10:30.579Z,29.85
2019-05-01T12:12:56.919Z,30.01
2019-05-01T12:15:23.290Z,30.20
2019-05-01T12:17:49.606Z,30.03
2019-05-01T12:20:15.938Z,30.12
2019-05-01T12:22:42.322Z,30.29
2019-05-01T12:25:08.649Z,30.26
2019-05-01T12:27:35.034Z,30.21
2019-05-01T12:30:01.399Z,30.11
2019-05-01T12:32:27.715Z,29.99
2019-05-01T12:34:54.048Z,30.21
2019-05-01T12:37:20.417Z,30.21
2019-05-01T12:39:46.755Z,30.06
2019-05-01T12:42:13.114Z,29.96
2019-05-01T12:44:39.451Z,29.92
2019-05-01T12:47:05.794Z,29.75
2019-05-01T12:49:32.166Z,29.62
2019-05-01T12:52:09.786Z,29.60
2019-05-01T12:54:24.857Z,29.47
2019-05-01T12:56:51.204Z,29.35
2019-05-01T12:59:17.592Z,29.24
2019-05-01T13:01:43.921Z,29.20
2019-05-01T13:04:10.327Z,29.35
2019-05-01T13:06:48.335Z,29.33
2019-05-01T13:09:02.986Z,29.28
2019-05-01T13:11:29.324Z,29.19
2019-05-01T13:13:55.645Z,29.24
2019-05-01T13:16:21.975Z,29.24
2019-05-01T13:18:48.307Z,28.94
2019-05-01T13:21:14.638Z,29.02
2019-05-01T13:23:41.030Z,29.08
2019-05-01T13:26:07.402Z,28.98
2019-05-01T13:28:33.724Z,29.03
2019-05-01T13:31:00.063Z,28.91
2019-05-01T13:33:27.859Z,28.94
2019-05-01T13:35:54.224Z,28.84
2019-05-01T13:38:20.556Z,28.88
2019-05-01T13:40:46.900Z,28.89
2019-05-01T13:43:13.222Z,28.88
2019-05-01T13:45:39.579Z,28.86
2019-05-01T13:48:05.907Z,28.87
2019-05-01T13:50:32.255Z,28.88
2019-05-01T13:52:58.573Z,28.73
2019-05-01T13:55:24.905Z,28.81
2019-05-01T13:57:51.244Z,28.92
2019-05-01T14:00:17.596Z,28.72
2019-05-01T14:02:43.950Z,28.78
2019-05-01T14:05:10.302Z,28.65
2019-05-01T14:07:36.671Z,28.81
2019-05-01T14:10:02.957Z,28.83
2019-05-01T14:12:29.358Z,28.83
2019-05-01T14:17:22.038Z,28.81
2019-05-01T14:19:48.405Z,28.77
2019-05-01T14:22:14.774Z,29.06
2019-05-01T14:24:41.134Z,29.03
2019-05-01T14:27:07.807Z,28.96
2019-05-01T14:29:33.867Z,29.03
2019-05-01T14:32:00.242Z,28.94
2019-05-01T14:34:26.628Z,29.02
2019-05-01T14:36:52.912Z,29.26
2019-05-01T14:39:19.252Z,29.19
2019-05-01T14:41:45.637Z,29.14
2019-05-01T14:44:11.967Z,29.12
2019-05-01T14:46:38.303Z,29.21
2019-05-01T14:49:04.645Z,29.38
2019-05-01T14:51:30.974Z,29.39
2019-05-01T14:53:57.356Z,29.75
2019-05-01T14:56:23.687Z,29.65
2019-05-01T14:58:50.046Z,29.72
2019-05-01T15:01:16.384Z,29.71
2019-05-01T15:03:43.973Z,29.78
2019-05-01T15:06:09.109Z,29.78
2019-05-01T15:08:35.485Z,29.84
2019-05-01T15:11:01.854Z,29.87
2019-05-01T15:13:28.209Z,30.01
2019-05-01T15:15:54.536Z,30.08
2019-05-01T15:18:20.887Z,30.19
2019-05-01T15:20:47.304Z,30.35
2019-05-01T15:23:13.698Z,30.41
2019-05-01T15:25:40.026Z,30.47
2019-05-01T15:28:06.371Z,30.65
2019-05-01T15:30:32.695Z,30.79
2019-05-01T15:32:59.039Z,30.83
2019-05-01T15:35:25.363Z,30.90
2019-05-01T15:37:56.767Z,30.94
2019-05-01T15:40:18.100Z,31.04
2019-05-01T15:42:44.428Z,31.24
2019-05-01T15:47:37.200Z,31.43
2019-05-01T15:50:03.538Z,31.48
2019-05-01T15:52:29.992Z,31.71
2019-05-01T15:54:56.286Z,31.75
2019-05-01T15:57:22.613Z,31.79
2019-05-01T15:59:48.983Z,31.99
2019-05-01T16:02:15.312Z,32.08
2019-05-01T16:04:41.705Z,32.22
2019-05-01T16:07:07.978Z,32.32
2019-05-01T16:09:34.338Z,32.23
2019-05-01T16:12:00.664Z,32.53
2019-05-01T16:14:27.033Z,32.47
2019-05-01T16:16:57.834Z,32.50
2019-05-01T16:19:24.167Z,32.83
2019-05-01T16:21:50.522Z,32.78
2019-05-01T16:24:16.893Z,32.87
2019-05-01T16:26:43.291Z,33.07
2019-05-01T16:29:09.689Z,33.06
2019-05-01T16:31:35.992Z,33.12
2019-05-01T16:34:02.391Z,33.25
2019-05-01T16:36:28.745Z,33.24
2019-05-01T16:38:55.077Z,33.31
2019-05-01T16:41:21.476Z,33.48
2019-05-01T16:43:47.781Z,33.47
2019-05-01T16:46:14.112Z,33.65
2019-05-01T16:48:40.466Z,33.69
2019-05-01T16:51:06.812Z,33.85
2019-05-01T16:53:33.208Z,33.95
2019-05-01T16:55:59.532Z,33.96
2019-05-01T16:58:25.893Z,34.04
2019-05-01T17:00:52.274Z,34.18
2019-05-01T17:03:18.604Z,34.17
2019-05-01T17:05:44.992Z,34.17
2019-05-01T17:08:11.323Z,34.18
2019-05-01T17:10:37.760Z,34.14
2019-05-01T17:13:04.129Z,34.13
2019-05-01T17:15:30.456Z,34.23
2019-05-01T17:17:56.820Z,34.17
2019-05-01T17:20:24.368Z,34.28
2019-05-01T17:22:50.744Z,34.20
2019-05-01T17:25:15.882Z,34.05
2019-05-01T17:27:42.229Z,34.01
2019-05-01T17:30:08.571Z,33.95
2019-05-01T17:32:34.911Z,33.88
2019-05-01T17:35:01.922Z,33.93
2019-05-01T17:37:27.631Z,33.86
2019-05-01T17:39:54.055Z,33.80
2019-05-01T17:42:20.467Z,33.75
2019-05-01T17:44:46.739Z,33.74
2019-05-01T17:47:13.125Z,33.64
2019-05-01T17:49:41.107Z,33.66
2019-05-01T17:52:05.780Z,33.64
2019-05-01T17:54:32.201Z,33.63
2019-05-01T17:56:58.545Z,33.56
2019-05-01T17:59:24.873Z,33.57
2019-05-01T18:01:51.210Z,33.49
2019-05-01T18:04:17.660Z,33.41
2019-05-01T18:06:46.556Z,33.59
2019-05-01T18:09:13.671Z,33.42
2019-05-01T18:11:36.640Z,33.38
2019-05-01T18:14:05.573Z,33.43
2019-05-01T18:16:29.289Z,33.37
2019-05-01T18:18:55.656Z,33.33
2019-05-01T18:21:22.021Z,33.37
2019-05-01T18:23:49.448Z,33.34
2019-05-01T18:26:14.711Z,33.45
2019-05-01T18:28:41.027Z,33.42
2019-05-01T18:31:07.406Z,33.35
2019-05-01T18:33:33.777Z,33.31
2019-05-01T18:36:00.069Z,33.40
2019-05-01T18:38:26.492Z,33.33
2019-05-01T18:40:52.832Z,33.36
2019-05-01T18:43:19.133Z,33.24
2019-05-01T18:45:45.485Z,33.25
2019-05-01T18:48:11.809Z,33.39
2019-05-01T18:50:38.261Z,33.25
2019-05-01T18:53:06.797Z,33.37
2019-05-01T18:55:31.509Z,33.39
2019-05-01T18:57:57.323Z,33.32
2019-05-01T19:00:23.638Z,33.32
2019-05-01T19:02:50.020Z,33.32
2019-05-01T19:05:16.311Z,33.53
2019-05-01T19:07:42.664Z,33.41
2019-05-01T19:10:09.051Z,33.38
2019-05-01T19:12:35.425Z,33.42
2019-05-01T19:15:05.349Z,33.47
2019-05-01T19:17:28.073Z,33.49
2019-05-01T19:19:54.459Z,33.33
2019-05-01T19:22:20.798Z,33.50
2019-05-01T19:24:47.208Z,33.38
2019-05-01T19:27:14.299Z,33.53
2019-05-01T19:29:39.858Z,33.59
2019-05-01T19:32:06.198Z,33.53
2019-05-01T19:34:32.565Z,33.53
2019-05-01T19:36:58.937Z,33.56
2019-05-01T19:39:25.283Z,33.62
2019-05-01T19:41:54.433Z,33.68
2019-05-01T19:44:18.859Z,33.67
2019-05-01T19:46:44.340Z,33.55
2019-05-01T19:49:10.680Z,33.68
2019-05-01T19:51:37.024Z,33.81
2019-05-01T19:54:03.426Z,33.83
2019-05-01T19:56:29.808Z,33.90
2019-05-01T19:58:56.187Z,33.82
2019-05-01T20:01:22.535Z,33.70
2019-05-01T20:03:48.821Z,33.82
2019-05-01T20:06:15.165Z,33.90
2019-05-01T20:08:41.563Z,33.76
2019-05-01T20:11:09.661Z,33.91
2019-05-01T20:13:34.241Z,33.98
2019-05-01T20:16:00.596Z,33.88
2019-05-01T20:18:26.923Z,33.93
2019-05-01T20:20:53.250Z,33.97
2019-05-01T20:23:19.631Z,34.00
2019-05-01T20:28:12.349Z,34.09
2019-05-01T20:30:38.710Z,34.09
2019-05-01T20:33:08.058Z,34.16
2019-05-01T20:35:34.139Z,34.10
2019-05-01T20:37:57.934Z,34.10
2019-05-01T20:40:24.286Z,34.11
2019-05-01T20:42:50.623Z,34.30
2019-05-01T20:45:18.335Z,34.22
2019-05-01T20:47:46.079Z,34.31
2019-05-01T20:50:09.653Z,34.32
2019-05-01T20:52:36.017Z,34.30
2019-05-01T20:55:02.356Z,34.38
2019-05-01T20:57:28.723Z,34.35
2019-05-01T20:59:55.057Z,34.38
2019-05-01T21:02:21.393Z,34.36
2019-05-01T21:04:47.798Z,34.39
2019-05-01T21:07:15.586Z,34.43
2019-05-01T21:09:47.395Z,34.32
2019-05-01T21:12:06.858Z,34.49
2019-05-01T21:14:33.193Z,34.51
2019-05-01T21:16:59.524Z,34.46
2019-05-01T21:21:53.635Z,34.48
2019-05-01T21:24:18.609Z,34.62
2019-05-01T21:26:44.936Z,34.50
2019-05-01T21:29:11.270Z,34.53
2019-05-01T21:31:37.622Z,34.53
2019-05-01T21:34:04.339Z,34.45
2019-05-01T21:36:30.354Z,34.54
2019-05-01T21:38:56.646Z,34.56
2019-05-01T21:41:23.004Z,34.59
2019-05-01T21:43:49.325Z,34.62
2019-05-01T21:46:15.714Z,34.57
2019-05-01T21:48:43.575Z,34.56
2019-05-01T21:51:08.388Z,34.76
2019-05-01T21:53:37.519Z,34.66
2019-05-01T21:56:02.249Z,34.73
2019-05-01T21:58:30.165Z,34.66
2019-05-01T22:00:55.119Z,34.71
2019-05-01T22:03:21.568Z,34.68
2019-05-01T22:05:46.515Z,34.80
2019-05-01T22:08:12.885Z,34.66
2019-05-01T22:10:51.356Z,34.83
2019-05-01T22:13:05.619Z,34.85
2019-05-01T22:15:31.947Z,34.89
2019-05-01T22:17:58.339Z,34.87
2019-05-01T22:20:24.669Z,34.98
2019-05-01T22:22:51.043Z,34.93
2019-05-01T22:25:17.427Z,35.00
2019-05-01T22:27:43.771Z,34.93
2019-05-01T22:30:10.963Z,35.01
2019-05-01T22:32:36.491Z,35.09
2019-05-01T22:35:02.806Z,35.04
2019-05-01T22:37:29.130Z,35.17
2019-05-01T22:39:55.528Z,35.29
2019-05-01T22:42:21.820Z,35.16
2019-05-01T22:44:48.230Z,35.29
2019-05-01T22:47:14.966Z,35.30
2019-05-01T22:49:40.961Z,35.44
2019-05-01T22:52:07.303Z,35.42
2019-05-01T22:54:33.633Z,35.48
2019-05-01T22:56:59.971Z,35.54
2019-05-01T22:59:26.302Z,35.50
2019-05-01T23:01:53.058Z,35.58
2019-05-01T23:04:19.065Z,35.56
2019-05-01T23:06:45.372Z,35.77
2019-05-01T23:09:11.705Z,35.77
2019-05-01T23:11:38.050Z,35.75
2019-05-01T23:14:04.381Z,35.76
2019-05-01T23:16:30.760Z,35.97
2019-05-01T23:18:57.090Z,35.85
2019-05-01T23:21:23.422Z,35.91
2019-05-01T23:23:49.749Z,35.91
2019-05-01T23:26:16.742Z,35.98
2019-05-01T23:28:42.447Z,36.12
2019-05-01T23:31:08.869Z,36.05
2019-05-01T23:33:35.312Z,36.13
2019-05-01T23:36:01.656Z,36.16
2019-05-01T23:38:28.044Z,36.24
2019-05-01T23:40:54.414Z,36.10
2019-05-01T23:43:22.956Z,36.25
2019-05-01T23:45:47.024Z,36.31
2019-05-01T23:48:13.410Z,36.34
2019-05-01T23:50:39.685Z,36.39
2019-05-01T23:53:08.992Z,36.36
2019-05-01T23:55:32.425Z,36.46
2019-05-01T23:57:58.841Z,36.45
